sensor_id;sensor_type;location;lat;lon;timestamp;P1;durP1;ratioP1;P2;durP2;ratioP2
68872;SDS011;55907;50.806;12.882;2022-11-06T00:00:18;11.7;;;10.5;;
68872;SDS011;55907;50.806;12.882;2022-11-06T00:03:20;12.5;;;10.9;;
68872;SDS011;55907;50.806;12.882;2022-11-06T00:06:21;12.4;;;10.3;;
68872;SDS011;55907;50.806;12.882;2022-11-06T00:09:23;13.0;;;11.0;;
68872;SDS011;55907;50.806;12.882;2022-11-06T00:12:24;12.7;;;11.0;;
68872;SDS011;55907;50.806;12.882;2022-11-06T00:15:26;13.1;;;10.6;;
68872;SDS011;55907;50.806;12.882;2022-11-06T00:18:27;13.5;;;10.7;;
68872;SDS011;55907;50.806;12.882;2022-11-06T00:24:30;14.2;;;10.6;;
68872;SDS011;55907;50.806;12.882;2022-11-06T00:27:34;13.1;;;11.1;;
68872;SDS011;55907;50.806;12.882;2022-11-06T00:30:33;13.8;;;11.8;;
68872;SDS011;55907;50.806;12.882;2022-11-06T00:33:35;15.3;;;11.6;;
68872;SDS011;55907;50.806;12.882;2022-11-06T00:36:37;13.1;;;11.5;;
68872;SDS011;55907;50.806;12.882;2022-11-06T00:39:38;16.9;;;12.8;;
68872;SDS011;55907;50.806;12.882;2022-11-06T00:42:40;13.5;;;12.1;;
68872;SDS011;55907;50.806;12.882;2022-11-06T00:45:41;13.0;;;11.7;;
68872;SDS011;55907;50.806;12.882;2022-11-06T00:48:43;15.6;;;12.1;;
68872;SDS011;55907;50.806;12.882;2022-11-06T00:51:44;14.6;;;11.1;;
68872;SDS011;55907;50.806;12.882;2022-11-06T00:54:46;14.7;;;11.8;;
68872;SDS011;55907;50.806;12.882;2022-11-06T00:57:47;13.6;;;11.8;;
68872;SDS011;55907;50.806;12.882;2022-11-06T01:00:49;15.8;;;13.1;;
68872;SDS011;55907;50.806;12.882;2022-11-06T01:03:51;14.2;;;11.2;;
68872;SDS011;55907;50.806;12.882;2022-11-06T01:06:53;13.6;;;12.2;;
68872;SDS011;55907;50.806;12.882;2022-11-06T01:09:54;13.2;;;11.8;;
68872;SDS011;55907;50.806;12.882;2022-11-06T01:12:55;14.4;;;12.3;;
68872;SDS011;55907;50.806;12.882;2022-11-06T01:15:57;14.8;;;13.2;;
68872;SDS011;55907;50.806;12.882;2022-11-06T01:18:58;14.2;;;12.0;;
68872;SDS011;55907;50.806;12.882;2022-11-06T01:25:01;14.7;;;12.5;;
68872;SDS011;55907;50.806;12.882;2022-11-06T01:31:05;13.2;;;11.8;;
68872;SDS011;55907;50.806;12.882;2022-11-06T01:34:06;15.2;;;12.9;;
68872;SDS011;55907;50.806;12.882;2022-11-06T01:37:07;15.1;;;12.3;;
68872;SDS011;55907;50.806;12.882;2022-11-06T01:40:09;14.2;;;12.7;;
68872;SDS011;55907;50.806;12.882;2022-11-06T01:43:12;14.8;;;12.2;;
68872;SDS011;55907;50.806;12.882;2022-11-06T01:46:12;15.0;;;13.4;;
68872;SDS011;55907;50.806;12.882;2022-11-06T01:49:14;15.2;;;13.6;;
68872;SDS011;55907;50.806;12.882;2022-11-06T01:52:15;18.0;;;13.8;;
68872;SDS011;55907;50.806;12.882;2022-11-06T01:55:18;15.9;;;13.7;;
68872;SDS011;55907;50.806;12.882;2022-11-06T01:58:19;15.1;;;12.7;;
68872;SDS011;55907;50.806;12.882;2022-11-06T02:01:20;15.4;;;13.2;;
68872;SDS011;55907;50.806;12.882;2022-11-06T02:04:25;14.5;;;12.9;;
68872;SDS011;55907;50.806;12.882;2022-11-06T02:07:23;14.2;;;12.7;;
68872;SDS011;55907;50.806;12.882;2022-11-06T02:10:25;14.6;;;13.1;;
68872;SDS011;55907;50.806;12.882;2022-11-06T02:13:30;14.2;;;12.6;;
68872;SDS011;55907;50.806;12.882;2022-11-06T02:16:32;14.4;;;12.6;;
68872;SDS011;55907;50.806;12.882;2022-11-06T02:19:34;16.6;;;13.4;;
68872;SDS011;55907;50.806;12.882;2022-11-06T02:22:36;17.1;;;13.9;;
68872;SDS011;55907;50.806;12.882;2022-11-06T02:25:36;17.6;;;14.2;;
68872;SDS011;55907;50.806;12.882;2022-11-06T02:28:34;16.3;;;13.9;;
68872;SDS011;55907;50.806;12.882;2022-11-06T02:31:36;14.8;;;12.6;;
68872;SDS011;55907;50.806;12.882;2022-11-06T02:34:37;14.5;;;12.4;;
68872;SDS011;55907;50.806;12.882;2022-11-06T02:37:38;15.0;;;13.4;;
68872;SDS011;55907;50.806;12.882;2022-11-06T02:40:41;17.2;;;15.0;;
68872;SDS011;55907;50.806;12.882;2022-11-06T02:43:43;17.1;;;14.7;;
68872;SDS011;55907;50.806;12.882;2022-11-06T02:46:44;16.4;;;13.6;;
68872;SDS011;55907;50.806;12.882;2022-11-06T02:49:45;17.6;;;14.4;;
68872;SDS011;55907;50.806;12.882;2022-11-06T02:52:47;15.7;;;13.4;;
68872;SDS011;55907;50.806;12.882;2022-11-06T02:55:48;13.6;;;12.2;;
68872;SDS011;55907;50.806;12.882;2022-11-06T02:58:50;13.7;;;12.3;;
68872;SDS011;55907;50.806;12.882;2022-11-06T03:01:52;13.9;;;12.5;;
68872;SDS011;55907;50.806;12.882;2022-11-06T03:04:53;15.0;;;12.9;;
68872;SDS011;55907;50.806;12.882;2022-11-06T03:07:56;14.2;;;12.8;;
68872;SDS011;55907;50.806;12.882;2022-11-06T03:10:57;14.1;;;12.2;;
68872;SDS011;55907;50.806;12.882;2022-11-06T03:13:57;14.6;;;13.1;;
68872;SDS011;55907;50.806;12.882;2022-11-06T03:16:59;15.1;;;12.3;;
68872;SDS011;55907;50.806;12.882;2022-11-06T03:20:02;13.6;;;12.2;;
68872;SDS011;55907;50.806;12.882;2022-11-06T03:23:04;14.3;;;12.6;;
68872;SDS011;55907;50.806;12.882;2022-11-06T03:26:06;14.0;;;12.4;;
68872;SDS011;55907;50.806;12.882;2022-11-06T03:29:06;14.1;;;12.5;;
68872;SDS011;55907;50.806;12.882;2022-11-06T03:32:08;13.5;;;12.2;;
68872;SDS011;55907;50.806;12.882;2022-11-06T03:35:09;14.0;;;12.2;;
68872;SDS011;55907;50.806;12.882;2022-11-06T03:38:10;15.4;;;12.9;;
68872;SDS011;55907;50.806;12.882;2022-11-06T03:41:13;14.2;;;12.7;;
68872;SDS011;55907;50.806;12.882;2022-11-06T03:44:13;15.4;;;12.6;;
68872;SDS011;55907;50.806;12.882;2022-11-06T03:47:17;14.2;;;12.7;;
68872;SDS011;55907;50.806;12.882;2022-11-06T03:50:16;15.0;;;13.2;;
68872;SDS011;55907;50.806;12.882;2022-11-06T03:53:19;13.5;;;12.2;;
68872;SDS011;55907;50.806;12.882;2022-11-06T03:56:20;15.1;;;11.6;;
68872;SDS011;55907;50.806;12.882;2022-11-06T03:59:20;13.1;;;11.8;;
68872;SDS011;55907;50.806;12.882;2022-11-06T04:02:22;15.3;;;12.2;;
68872;SDS011;55907;50.806;12.882;2022-11-06T04:05:23;12.8;;;11.5;;
68872;SDS011;55907;50.806;12.882;2022-11-06T04:08:25;13.6;;;11.7;;
68872;SDS011;55907;50.806;12.882;2022-11-06T04:11:26;14.6;;;12.7;;
68872;SDS011;55907;50.806;12.882;2022-11-06T04:14:28;13.6;;;12.2;;
68872;SDS011;55907;50.806;12.882;2022-11-06T04:17:29;14.3;;;12.1;;
68872;SDS011;55907;50.806;12.882;2022-11-06T04:20:34;14.2;;;12.7;;
68872;SDS011;55907;50.806;12.882;2022-11-06T04:23:33;14.0;;;12.5;;
68872;SDS011;55907;50.806;12.882;2022-11-06T04:26:34;13.9;;;12.4;;
68872;SDS011;55907;50.806;12.882;2022-11-06T04:29:40;14.8;;;13.1;;
68872;SDS011;55907;50.806;12.882;2022-11-06T04:32:41;12.7;;;11.4;;
68872;SDS011;55907;50.806;12.882;2022-11-06T04:35:42;14.5;;;13.0;;
68872;SDS011;55907;50.806;12.882;2022-11-06T04:38:41;14.3;;;12.3;;
68872;SDS011;55907;50.806;12.882;2022-11-06T04:41:44;13.8;;;12.3;;
68872;SDS011;55907;50.806;12.882;2022-11-06T04:44:44;16.1;;;12.4;;
68872;SDS011;55907;50.806;12.882;2022-11-06T04:47:45;14.4;;;12.2;;
68872;SDS011;55907;50.806;12.882;2022-11-06T04:50:47;13.6;;;12.2;;
68872;SDS011;55907;50.806;12.882;2022-11-06T04:53:48;14.0;;;12.6;;
68872;SDS011;55907;50.806;12.882;2022-11-06T04:56:50;14.1;;;12.7;;
68872;SDS011;55907;50.806;12.882;2022-11-06T04:59:51;13.4;;;12.0;;
68872;SDS011;55907;50.806;12.882;2022-11-06T05:02:53;13.3;;;12.0;;
68872;SDS011;55907;50.806;12.882;2022-11-06T05:05:54;15.6;;;13.2;;
68872;SDS011;55907;50.806;12.882;2022-11-06T05:08:56;14.8;;;12.5;;
68872;SDS011;55907;50.806;12.882;2022-11-06T05:11:57;13.7;;;12.2;;
68872;SDS011;55907;50.806;12.882;2022-11-06T05:14:59;13.6;;;12.2;;
68872;SDS011;55907;50.806;12.882;2022-11-06T05:18:01;13.3;;;11.9;;
68872;SDS011;55907;50.806;12.882;2022-11-06T05:21:02;16.7;;;13.4;;
68872;SDS011;55907;50.806;12.882;2022-11-06T05:24:04;15.7;;;12.5;;
68872;SDS011;55907;50.806;12.882;2022-11-06T05:27:05;15.1;;;13.5;;
68872;SDS011;55907;50.806;12.882;2022-11-06T05:30:07;16.8;;;13.2;;
68872;SDS011;55907;50.806;12.882;2022-11-06T05:33:08;16.6;;;13.7;;
68872;SDS011;55907;50.806;12.882;2022-11-06T05:36:10;15.0;;;13.4;;
68872;SDS011;55907;50.806;12.882;2022-11-06T05:39:12;15.1;;;12.6;;
68872;SDS011;55907;50.806;12.882;2022-11-06T05:42:13;13.9;;;12.2;;
68872;SDS011;55907;50.806;12.882;2022-11-06T05:45:15;13.5;;;11.7;;
68872;SDS011;55907;50.806;12.882;2022-11-06T05:48:16;13.7;;;12.1;;
68872;SDS011;55907;50.806;12.882;2022-11-06T05:51:18;13.6;;;11.3;;
68872;SDS011;55907;50.806;12.882;2022-11-06T05:54:19;17.1;;;13.3;;
68872;SDS011;55907;50.806;12.882;2022-11-06T05:57:21;13.6;;;11.8;;
68872;SDS011;55907;50.806;12.882;2022-11-06T06:00:22;15.5;;;12.3;;
68872;SDS011;55907;50.806;12.882;2022-11-06T06:03:24;17.4;;;13.9;;
68872;SDS011;55907;50.806;12.882;2022-11-06T06:06:26;16.8;;;12.4;;
68872;SDS011;55907;50.806;12.882;2022-11-06T06:09:27;14.0;;;11.4;;
68872;SDS011;55907;50.806;12.882;2022-11-06T06:12:29;12.9;;;11.5;;
68872;SDS011;55907;50.806;12.882;2022-11-06T06:15:30;13.2;;;11.2;;
68872;SDS011;55907;50.806;12.882;2022-11-06T06:18:32;12.5;;;11.2;;
68872;SDS011;55907;50.806;12.882;2022-11-06T06:21:33;14.1;;;11.4;;
68872;SDS011;55907;50.806;12.882;2022-11-06T06:24:35;11.8;;;10.0;;
68872;SDS011;55907;50.806;12.882;2022-11-06T06:27:37;12.7;;;11.0;;
68872;SDS011;55907;50.806;12.882;2022-11-06T06:30:38;13.2;;;10.8;;
68872;SDS011;55907;50.806;12.882;2022-11-06T06:33:40;11.6;;;10.4;;
68872;SDS011;55907;50.806;12.882;2022-11-06T06:36:41;12.7;;;11.4;;
68872;SDS011;55907;50.806;12.882;2022-11-06T06:39:43;12.4;;;11.1;;
68872;SDS011;55907;50.806;12.882;2022-11-06T06:42:45;12.5;;;10.4;;
68872;SDS011;55907;50.806;12.882;2022-11-06T06:45:46;11.9;;;10.5;;
68872;SDS011;55907;50.806;12.882;2022-11-06T06:48:48;12.7;;;10.8;;
68872;SDS011;55907;50.806;12.882;2022-11-06T06:51:49;12.4;;;11.1;;
68872;SDS011;55907;50.806;12.882;2022-11-06T06:54:51;12.3;;;10.7;;
68872;SDS011;55907;50.806;12.882;2022-11-06T06:57:56;11.7;;;10.5;;
68872;SDS011;55907;50.806;12.882;2022-11-06T07:00:54;11.3;;;10.3;;
68872;SDS011;55907;50.806;12.882;2022-11-06T07:03:55;12.4;;;11.2;;
68872;SDS011;55907;50.806;12.882;2022-11-06T07:06:57;11.7;;;10.5;;
68872;SDS011;55907;50.806;12.882;2022-11-06T07:09:58;11.6;;;10.5;;
68872;SDS011;55907;50.806;12.882;2022-11-06T07:13:00;11.0;;;9.9;;
68872;SDS011;55907;50.806;12.882;2022-11-06T07:19:03;11.5;;;10.4;;
68872;SDS011;55907;50.806;12.882;2022-11-06T07:22:05;11.0;;;9.9;;
68872;SDS011;55907;50.806;12.882;2022-11-06T07:25:06;11.5;;;10.4;;
68872;SDS011;55907;50.806;12.882;2022-11-06T07:28:08;11.8;;;10.6;;
68872;SDS011;55907;50.806;12.882;2022-11-06T07:31:09;13.6;;;11.6;;
68872;SDS011;55907;50.806;12.882;2022-11-06T07:34:11;12.4;;;11.1;;
68872;SDS011;55907;50.806;12.882;2022-11-06T07:37:12;13.1;;;10.7;;
68872;SDS011;55907;50.806;12.882;2022-11-06T07:40:14;10.4;;;9.4;;
68872;SDS011;55907;50.806;12.882;2022-11-06T07:43:15;11.2;;;10.2;;
68872;SDS011;55907;50.806;12.882;2022-11-06T07:46:17;10.9;;;9.9;;
68872;SDS011;55907;50.806;12.882;2022-11-06T07:49:18;10.8;;;9.8;;
68872;SDS011;55907;50.806;12.882;2022-11-06T07:52:20;10.4;;;9.4;;
68872;SDS011;55907;50.806;12.882;2022-11-06T07:55:22;10.3;;;9.3;;
68872;SDS011;55907;50.806;12.882;2022-11-06T07:58:23;9.4;;;8.3;;
68872;SDS011;55907;50.806;12.882;2022-11-06T08:01:24;6.3;;;5.5;;
68872;SDS011;55907;50.806;12.882;2022-11-06T08:04:26;6.1;;;4.3;;
68872;SDS011;55907;50.806;12.882;2022-11-06T08:07:27;5.9;;;3.6;;
68872;SDS011;55907;50.806;12.882;2022-11-06T08:10:29;7.0;;;3.7;;
68872;SDS011;55907;50.806;12.882;2022-11-06T08:13:31;9.4;;;5.7;;
68872;SDS011;55907;50.806;12.882;2022-11-06T08:16:32;5.5;;;3.5;;
68872;SDS011;55907;50.806;12.882;2022-11-06T08:19:34;6.2;;;3.3;;
68872;SDS011;55907;50.806;12.882;2022-11-06T08:22:35;4.6;;;3.3;;
68872;SDS011;55907;50.806;12.882;2022-11-06T08:25:36;13.9;;;8.2;;
68872;SDS011;55907;50.806;12.882;2022-11-06T08:28:38;6.1;;;3.9;;
68872;SDS011;55907;50.806;12.882;2022-11-06T08:31:39;3.9;;;3.2;;
68872;SDS011;55907;50.806;12.882;2022-11-06T08:34:41;4.6;;;3.1;;
68872;SDS011;55907;50.806;12.882;2022-11-06T08:37:42;9.5;;;6.2;;
68872;SDS011;55907;50.806;12.882;2022-11-06T08:40:44;3.9;;;3.0;;
68872;SDS011;55907;50.806;12.882;2022-11-06T08:43:49;3.7;;;2.9;;
68872;SDS011;55907;50.806;12.882;2022-11-06T08:46:47;4.9;;;2.9;;
68872;SDS011;55907;50.806;12.882;2022-11-06T08:49:48;3.7;;;2.1;;
68872;SDS011;55907;50.806;12.882;2022-11-06T08:52:49;2.7;;;2.3;;
68872;SDS011;55907;50.806;12.882;2022-11-06T08:55:50;3.6;;;2.2;;
68872;SDS011;55907;50.806;12.882;2022-11-06T08:58:52;3.5;;;2.2;;
68872;SDS011;55907;50.806;12.882;2022-11-06T09:01:54;4.4;;;2.5;;
68872;SDS011;55907;50.806;12.882;2022-11-06T09:04:55;2.7;;;2.1;;
68872;SDS011;55907;50.806;12.882;2022-11-06T09:07:56;4.0;;;3.1;;
68872;SDS011;55907;50.806;12.882;2022-11-06T09:10:57;4.6;;;2.4;;
68872;SDS011;55907;50.806;12.882;2022-11-06T09:13:59;2.8;;;2.0;;
68872;SDS011;55907;50.806;12.882;2022-11-06T09:17:00;4.5;;;2.3;;
68872;SDS011;55907;50.806;12.882;2022-11-06T09:20:01;4.1;;;2.5;;
68872;SDS011;55907;50.806;12.882;2022-11-06T09:23:03;2.3;;;1.9;;
68872;SDS011;55907;50.806;12.882;2022-11-06T09:26:04;4.1;;;1.9;;
68872;SDS011;55907;50.806;12.882;2022-11-06T09:29:05;3.9;;;1.9;;
68872;SDS011;55907;50.806;12.882;2022-11-06T09:32:07;2.8;;;1.8;;
68872;SDS011;55907;50.806;12.882;2022-11-06T09:35:08;4.4;;;2.5;;
68872;SDS011;55907;50.806;12.882;2022-11-06T09:38:11;3.3;;;2.0;;
68872;SDS011;55907;50.806;12.882;2022-11-06T09:41:13;2.9;;;1.9;;
68872;SDS011;55907;50.806;12.882;2022-11-06T09:44:17;1.9;;;1.7;;
68872;SDS011;55907;50.806;12.882;2022-11-06T09:47:14;2.9;;;1.6;;
68872;SDS011;55907;50.806;12.882;2022-11-06T09:50:16;2.6;;;1.9;;
68872;SDS011;55907;50.806;12.882;2022-11-06T09:56:18;3.1;;;1.7;;
68872;SDS011;55907;50.806;12.882;2022-11-06T09:59:19;2.6;;;1.9;;
68872;SDS011;55907;50.806;12.882;2022-11-06T10:02:24;2.4;;;1.7;;
68872;SDS011;55907;50.806;12.882;2022-11-06T10:05:23;3.1;;;2.1;;
68872;SDS011;55907;50.806;12.882;2022-11-06T10:08:23;3.0;;;2.2;;
68872;SDS011;55907;50.806;12.882;2022-11-06T10:11:29;3.6;;;1.8;;
68872;SDS011;55907;50.806;12.882;2022-11-06T10:14:30;2.6;;;2.0;;
68872;SDS011;55907;50.806;12.882;2022-11-06T10:17:30;2.1;;;1.6;;
68872;SDS011;55907;50.806;12.882;2022-11-06T10:20:30;2.9;;;1.9;;
68872;SDS011;55907;50.806;12.882;2022-11-06T10:23:32;2.8;;;2.0;;
68872;SDS011;55907;50.806;12.882;2022-11-06T10:26:34;2.7;;;1.9;;
68872;SDS011;55907;50.806;12.882;2022-11-06T10:29:37;2.5;;;1.5;;
68872;SDS011;55907;50.806;12.882;2022-11-06T10:35:36;2.9;;;1.9;;
68872;SDS011;55907;50.806;12.882;2022-11-06T10:38:37;2.6;;;2.1;;
68872;SDS011;55907;50.806;12.882;2022-11-06T10:41:38;3.0;;;2.0;;
68872;SDS011;55907;50.806;12.882;2022-11-06T10:44:40;3.8;;;2.5;;
68872;SDS011;55907;50.806;12.882;2022-11-06T10:47:42;4.0;;;2.0;;
68872;SDS011;55907;50.806;12.882;2022-11-06T10:50:44;3.3;;;1.9;;
68872;SDS011;55907;50.806;12.882;2022-11-06T10:53:46;2.3;;;2.0;;
68872;SDS011;55907;50.806;12.882;2022-11-06T10:56:48;3.9;;;2.7;;
68872;SDS011;55907;50.806;12.882;2022-11-06T10:59:47;2.5;;;1.9;;
68872;SDS011;55907;50.806;12.882;2022-11-06T11:05:49;2.8;;;1.6;;
68872;SDS011;55907;50.806;12.882;2022-11-06T11:08:51;3.2;;;2.0;;
68872;SDS011;55907;50.806;12.882;2022-11-06T11:11:52;2.2;;;1.7;;
68872;SDS011;55907;50.806;12.882;2022-11-06T11:21:05;3.7;;;2.3;;
68872;SDS011;55907;50.806;12.882;2022-11-06T11:24:06;3.3;;;2.4;;
68872;SDS011;55907;50.806;12.882;2022-11-06T11:27:00;2.9;;;1.9;;
68872;SDS011;55907;50.806;12.882;2022-11-06T11:30:01;2.7;;;1.7;;
68872;SDS011;55907;50.806;12.882;2022-11-06T11:36:03;2.3;;;1.5;;
68872;SDS011;55907;50.806;12.882;2022-11-06T11:39:04;2.0;;;1.7;;
68872;SDS011;55907;50.806;12.882;2022-11-06T11:45:11;3.1;;;1.8;;
68872;SDS011;55907;50.806;12.882;2022-11-06T11:48:11;3.3;;;2.3;;
68872;SDS011;55907;50.806;12.882;2022-11-06T11:51:11;3.0;;;2.3;;
68872;SDS011;55907;50.806;12.882;2022-11-06T11:54:15;3.7;;;2.0;;
68872;SDS011;55907;50.806;12.882;2022-11-06T11:57:16;3.0;;;2.1;;
68872;SDS011;55907;50.806;12.882;2022-11-06T12:00:15;2.6;;;2.1;;
68872;SDS011;55907;50.806;12.882;2022-11-06T12:03:16;4.4;;;2.1;;
68872;SDS011;55907;50.806;12.882;2022-11-06T12:06:17;2.6;;;2.0;;
68872;SDS011;55907;50.806;12.882;2022-11-06T12:09:19;2.2;;;1.9;;
68872;SDS011;55907;50.806;12.882;2022-11-06T12:12:20;3.5;;;2.1;;
68872;SDS011;55907;50.806;12.882;2022-11-06T12:15:23;3.6;;;1.9;;
68872;SDS011;55907;50.806;12.882;2022-11-06T12:18:25;2.9;;;2.0;;
68872;SDS011;55907;50.806;12.882;2022-11-06T12:21:25;3.5;;;1.9;;
68872;SDS011;55907;50.806;12.882;2022-11-06T12:24:26;6.2;;;3.7;;
68872;SDS011;55907;50.806;12.882;2022-11-06T12:27:28;2.4;;;1.8;;
68872;SDS011;55907;50.806;12.882;2022-11-06T12:30:29;2.6;;;1.8;;
68872;SDS011;55907;50.806;12.882;2022-11-06T12:33:30;3.6;;;2.3;;
68872;SDS011;55907;50.806;12.882;2022-11-06T12:36:32;4.3;;;1.8;;
68872;SDS011;55907;50.806;12.882;2022-11-06T12:39:33;4.4;;;2.0;;
68872;SDS011;55907;50.806;12.882;2022-11-06T12:42:34;2.5;;;1.9;;
68872;SDS011;55907;50.806;12.882;2022-11-06T12:45:39;4.5;;;2.0;;
68872;SDS011;55907;50.806;12.882;2022-11-06T12:51:40;3.1;;;2.0;;
68872;SDS011;55907;50.806;12.882;2022-11-06T12:54:44;3.3;;;1.9;;
68872;SDS011;55907;50.806;12.882;2022-11-06T12:57:45;2.9;;;2.0;;
68872;SDS011;55907;50.806;12.882;2022-11-06T13:00:48;3.1;;;1.8;;
68872;SDS011;55907;50.806;12.882;2022-11-06T13:03:51;3.0;;;1.8;;
68872;SDS011;55907;50.806;12.882;2022-11-06T13:06:55;3.1;;;1.8;;
68872;SDS011;55907;50.806;12.882;2022-11-06T13:09:50;3.0;;;1.8;;
68872;SDS011;55907;50.806;12.882;2022-11-06T13:12:51;5.3;;;2.4;;
68872;SDS011;55907;50.806;12.882;2022-11-06T13:15:51;3.5;;;2.0;;
68872;SDS011;55907;50.806;12.882;2022-11-06T13:18:52;3.4;;;2.1;;
68872;SDS011;55907;50.806;12.882;2022-11-06T13:21:58;4.5;;;2.3;;
68872;SDS011;55907;50.806;12.882;2022-11-06T13:24:57;3.5;;;2.3;;
68872;SDS011;55907;50.806;12.882;2022-11-06T13:27:57;3.1;;;2.2;;
68872;SDS011;55907;50.806;12.882;2022-11-06T13:30:58;4.0;;;2.2;;
68872;SDS011;55907;50.806;12.882;2022-11-06T13:33:59;4.5;;;2.6;;
68872;SDS011;55907;50.806;12.882;2022-11-06T13:37:01;4.0;;;2.3;;
68872;SDS011;55907;50.806;12.882;2022-11-06T13:40:04;3.2;;;2.5;;
68872;SDS011;55907;50.806;12.882;2022-11-06T13:43:04;4.4;;;2.4;;
68872;SDS011;55907;50.806;12.882;2022-11-06T13:46:07;3.8;;;2.6;;
68872;SDS011;55907;50.806;12.882;2022-11-06T13:49:10;3.6;;;2.5;;
68872;SDS011;55907;50.806;12.882;2022-11-06T13:52:09;2.8;;;2.2;;
68872;SDS011;55907;50.806;12.882;2022-11-06T13:55:11;3.4;;;2.2;;
68872;SDS011;55907;50.806;12.882;2022-11-06T13:58:18;2.8;;;2.0;;
68872;SDS011;55907;50.806;12.882;2022-11-06T14:01:15;2.5;;;1.9;;
68872;SDS011;55907;50.806;12.882;2022-11-06T14:04:21;2.3;;;1.8;;
68872;SDS011;55907;50.806;12.882;2022-11-06T14:07:16;2.8;;;1.6;;
68872;SDS011;55907;50.806;12.882;2022-11-06T14:10:18;3.9;;;2.6;;
68872;SDS011;55907;50.806;12.882;2022-11-06T14:13:22;3.8;;;2.2;;
68872;SDS011;55907;50.806;12.882;2022-11-06T14:16:23;3.0;;;2.0;;
68872;SDS011;55907;50.806;12.882;2022-11-06T14:19:22;2.4;;;2.0;;
68872;SDS011;55907;50.806;12.882;2022-11-06T14:22:24;4.0;;;2.0;;
68872;SDS011;55907;50.806;12.882;2022-11-06T14:28:27;4.0;;;2.2;;
68872;SDS011;55907;50.806;12.882;2022-11-06T14:34:30;4.6;;;2.1;;
68872;SDS011;55907;50.806;12.882;2022-11-06T14:40:32;3.1;;;2.1;;
68872;SDS011;55907;50.806;12.882;2022-11-06T14:43:34;4.4;;;2.7;;
68872;SDS011;55907;50.806;12.882;2022-11-06T14:46:35;3.3;;;2.3;;
68872;SDS011;55907;50.806;12.882;2022-11-06T14:49:37;3.5;;;1.9;;
68872;SDS011;55907;50.806;12.882;2022-11-06T14:52:40;2.3;;;2.0;;
68872;SDS011;55907;50.806;12.882;2022-11-06T14:55:40;3.2;;;2.1;;
68872;SDS011;55907;50.806;12.882;2022-11-06T14:58:46;3.1;;;2.1;;
68872;SDS011;55907;50.806;12.882;2022-11-06T15:01:50;2.7;;;2.0;;
68872;SDS011;55907;50.806;12.882;2022-11-06T15:02:00;unavailable;;;unavailable;;
68872;SDS011;55907;50.806;12.882;2022-11-06T15:10:49;5.1;;;3.0;;
68872;SDS011;55907;50.806;12.882;2022-11-06T15:13:49;4.6;;;3.4;;
68872;SDS011;55907;50.806;12.882;2022-11-06T15:16:51;6.9;;;4.1;;
68872;SDS011;55907;50.806;12.882;2022-11-06T15:19:56;5.6;;;4.0;;
68872;SDS011;55907;50.806;12.882;2022-11-06T15:22:57;5.9;;;4.4;;
68872;SDS011;55907;50.806;12.882;2022-11-06T15:32:00;7.3;;;4.9;;
68872;SDS011;55907;50.806;12.882;2022-11-06T15:32:47;unavailable;;;unavailable;;
68872;SDS011;55907;50.806;12.882;2022-11-06T15:38:03;7.4;;;5.2;;
68872;SDS011;55907;50.806;12.882;2022-11-06T15:44:04;7.4;;;5.9;;
68872;SDS011;55907;50.806;12.882;2022-11-06T15:50:11;8.6;;;7.0;;
68872;SDS011;55907;50.806;12.882;2022-11-06T15:53:15;9.1;;;7.8;;
68872;SDS011;55907;50.806;12.882;2022-11-06T15:56:11;9.7;;;8.7;;
68872;SDS011;55907;50.806;12.882;2022-11-06T15:59:12;11.1;;;9.2;;
68872;SDS011;55907;50.806;12.882;2022-11-06T16:02:14;12.3;;;11.1;;
68872;SDS011;55907;50.806;12.882;2022-11-06T16:05:15;11.2;;;10.1;;
68872;SDS011;55907;50.806;12.882;2022-11-06T16:08:17;11.8;;;10.7;;
68872;SDS011;55907;50.806;12.882;2022-11-06T16:11:18;13.2;;;11.8;;
68872;SDS011;55907;50.806;12.882;2022-11-06T16:14:19;12.4;;;11.1;;
68872;SDS011;55907;50.806;12.882;2022-11-06T16:17:21;11.4;;;10.2;;
68872;SDS011;55907;50.806;12.882;2022-11-06T16:20:22;12.9;;;11.7;;
68872;SDS011;55907;50.806;12.882;2022-11-06T16:23:25;11.9;;;10.7;;
68872;SDS011;55907;50.806;12.882;2022-11-06T16:26:26;13.2;;;12.0;;
68872;SDS011;55907;50.806;12.882;2022-11-06T16:29:27;12.5;;;11.2;;
68872;SDS011;55907;50.806;12.882;2022-11-06T16:32:29;12.1;;;11.0;;
68872;SDS011;55907;50.806;12.882;2022-11-06T16:35:31;12.0;;;10.8;;
68872;SDS011;55907;50.806;12.882;2022-11-06T16:38:36;11.5;;;10.4;;
68872;SDS011;55907;50.806;12.882;2022-11-06T16:41:35;11.6;;;10.5;;
68872;SDS011;55907;50.806;12.882;2022-11-06T16:44:42;12.5;;;11.3;;
68872;SDS011;55907;50.806;12.882;2022-11-06T16:47:36;12.2;;;11.0;;
68872;SDS011;55907;50.806;12.882;2022-11-06T16:50:41;15.8;;;14.2;;
68872;SDS011;55907;50.806;12.882;2022-11-06T16:53:46;13.1;;;11.8;;
68872;SDS011;55907;50.806;12.882;2022-11-06T16:56:41;12.5;;;11.3;;
68872;SDS011;55907;50.806;12.882;2022-11-06T16:59:42;12.4;;;11.1;;
68872;SDS011;55907;50.806;12.882;2022-11-06T17:02:45;13.0;;;11.7;;
68872;SDS011;55907;50.806;12.882;2022-11-06T17:05:49;12.7;;;11.5;;
68872;SDS011;55907;50.806;12.882;2022-11-06T17:11:50;12.2;;;11.1;;
68872;SDS011;55907;50.806;12.882;2022-11-06T17:14:50;14.2;;;12.4;;
68872;SDS011;55907;50.806;12.882;2022-11-06T17:17:51;14.0;;;12.6;;
68872;SDS011;55907;50.806;12.882;2022-11-06T17:20:54;13.0;;;11.7;;
68872;SDS011;55907;50.806;12.882;2022-11-06T17:23:55;12.8;;;11.5;;
68872;SDS011;55907;50.806;12.882;2022-11-06T17:26:56;12.6;;;11.4;;
68872;SDS011;55907;50.806;12.882;2022-11-06T17:29:58;13.0;;;11.7;;
68872;SDS011;55907;50.806;12.882;2022-11-06T17:32:59;12.9;;;11.6;;
68872;SDS011;55907;50.806;12.882;2022-11-06T17:36:01;12.1;;;10.9;;
68872;SDS011;55907;50.806;12.882;2022-11-06T17:39:02;12.5;;;11.3;;
68872;SDS011;55907;50.806;12.882;2022-11-06T17:42:04;13.7;;;12.3;;
68872;SDS011;55907;50.806;12.882;2022-11-06T17:45:06;12.3;;;11.0;;
68872;SDS011;55907;50.806;12.882;2022-11-06T17:51:08;13.6;;;11.9;;
68872;SDS011;55907;50.806;12.882;2022-11-06T17:54:10;12.9;;;11.1;;
68872;SDS011;55907;50.806;12.882;2022-11-06T17:57:12;13.1;;;11.7;;
68872;SDS011;55907;50.806;12.882;2022-11-06T18:00:13;13.2;;;11.8;;
68872;SDS011;55907;50.806;12.882;2022-11-06T18:03:15;13.8;;;12.3;;
68872;SDS011;55907;50.806;12.882;2022-11-06T18:06:16;13.4;;;12.0;;
68872;SDS011;55907;50.806;12.882;2022-11-06T18:09:18;14.1;;;10.9;;
68872;SDS011;55907;50.806;12.882;2022-11-06T18:12:19;11.6;;;10.4;;
68872;SDS011;55907;50.806;12.882;2022-11-06T18:18:22;9.9;;;8.7;;
68872;SDS011;55907;50.806;12.882;2022-11-06T18:21:24;9.8;;;8.0;;
68872;SDS011;55907;50.806;12.882;2022-11-06T18:24:25;7.8;;;6.5;;
68872;SDS011;55907;50.806;12.882;2022-11-06T18:27:27;8.8;;;7.4;;
68872;SDS011;55907;50.806;12.882;2022-11-06T18:30:28;8.6;;;7.3;;
68872;SDS011;55907;50.806;12.882;2022-11-06T18:33:30;11.0;;;9.2;;
68872;SDS011;55907;50.806;12.882;2022-11-06T18:36:31;10.9;;;8.8;;
68872;SDS011;55907;50.806;12.882;2022-11-06T18:39:33;12.1;;;10.8;;
68872;SDS011;55907;50.806;12.882;2022-11-06T18:42:34;11.5;;;10.4;;
68872;SDS011;55907;50.806;12.882;2022-11-06T18:45:36;12.4;;;11.1;;
68872;SDS011;55907;50.806;12.882;2022-11-06T18:48:38;11.8;;;10.6;;
68872;SDS011;55907;50.806;12.882;2022-11-06T18:51:39;12.1;;;10.9;;
68872;SDS011;55907;50.806;12.882;2022-11-06T18:54:40;11.0;;;9.9;;
68872;SDS011;55907;50.806;12.882;2022-11-06T18:57:42;11.7;;;10.4;;
68872;SDS011;55907;50.806;12.882;2022-11-06T19:03:45;12.2;;;10.9;;
68872;SDS011;55907;50.806;12.882;2022-11-06T19:06:46;11.4;;;10.3;;
68872;SDS011;55907;50.806;12.882;2022-11-06T19:09:48;10.8;;;9.8;;
68872;SDS011;55907;50.806;12.882;2022-11-06T19:12:50;10.5;;;9.5;;
68872;SDS011;55907;50.806;12.882;2022-11-06T19:15:51;10.6;;;9.5;;
68872;SDS011;55907;50.806;12.882;2022-11-06T19:21:54;10.2;;;9.1;;
68872;SDS011;55907;50.806;12.882;2022-11-06T19:24:56;9.5;;;8.6;;